Terminal Aerodrome Forecast
Issued by NWS

Home | Current Version | Previous Version | Text Only | Print | Product List | Glossary On
Versions: 1 2 3 4 5 6 7 8 9 10 11 12 13 14 15 16 17 18 19 20
748
FTUS43 KILX 090527
TAFDEC
TAF
KDEC 090527Z 0906/1006 31010G18KT 3SM -SN BR OVC018
     FM091600 31014G20KT 6SM -SN OVC025
     FM100000 31013KT P6SM BKN025=

USA.gov is the U.S. government's official web portal to all federal, state and local government web resources and services.